createdAt,value
2022-10-23T00:00:09.732Z,9.65
2022-10-23T00:00:31.864Z,9.30
2022-10-23T00:00:53.733Z,9.27
2022-10-23T00:01:20.378Z,9.50
2022-10-23T00:01:43.446Z,9.02
2022-10-23T00:02:05.685Z,9.02
2022-10-23T00:02:27.859Z,8.77
2022-10-23T00:02:54.099Z,9.35
2022-10-23T00:03:15.816Z,8.68
2022-10-23T00:03:37.619Z,8.82
2022-10-23T00:04:13.702Z,8.75
2022-10-23T00:04:35.913Z,8.82
2022-10-23T00:04:58.480Z,8.48
2022-10-23T00:05:21.564Z,8.52
2022-10-23T00:05:43.332Z,8.45
2022-10-23T00:06:05.865Z,8.02
2022-10-23T00:06:29.914Z,8.00
2022-10-23T00:06:51.815Z,8.00
2022-10-23T00:07:13.589Z,8.38
2022-10-23T00:07:35.346Z,8.38
2022-10-23T00:07:58.562Z,8.68
2022-10-23T00:08:20.319Z,8.27
2022-10-23T00:08:42.471Z,7.93
2022-10-23T00:09:07.002Z,8.48
2022-10-23T00:09:28.804Z,8.52
2022-10-23T00:09:50.904Z,9.10
2022-10-23T00:10:13.043Z,8.70
2022-10-23T00:10:35.379Z,8.63
2022-10-23T00:10:57.713Z,8.32
2022-10-23T00:11:22.535Z,8.40
2022-10-23T00:11:47.543Z,8.25
2022-10-23T00:12:09.722Z,8.50
2022-10-23T00:12:32.367Z,8.77
2022-10-23T00:12:54.785Z,8.38
2022-10-23T00:13:16.908Z,7.95
2022-10-23T00:13:39.303Z,8.30
2022-10-23T00:14:03.014Z,8.00
2022-10-23T00:14:25.603Z,8.27
2022-10-23T00:14:47.739Z,8.63
2022-10-23T00:15:10.123Z,8.60
2022-10-23T00:15:32.497Z,8.90
2022-10-23T00:15:55.443Z,8.70
2022-10-23T00:16:17.376Z,8.60
2022-10-23T00:16:39.314Z,9.02
2022-10-23T00:17:01.434Z,8.68
2022-10-23T00:17:23.567Z,9.18
2022-10-23T00:17:45.864Z,8.88
2022-10-23T00:18:08.014Z,8.65
2022-10-23T00:18:30.223Z,9.00
2022-10-23T00:18:52.244Z,8.07
2022-10-23T00:19:14.540Z,8.52
2022-10-23T00:19:36.760Z,9.23
2022-10-23T00:19:58.844Z,9.10
2022-10-23T00:20:21.808Z,8.88
2022-10-23T00:20:43.624Z,9.05
2022-10-23T00:21:06.427Z,10.02
2022-10-23T00:21:28.649Z,9.73
2022-10-23T00:21:50.949Z,9.85
2022-10-23T00:22:12.696Z,9.30
2022-10-23T00:22:34.719Z,9.25
2022-10-23T00:22:56.898Z,9.60
2022-10-23T00:23:18.643Z,9.57
2022-10-23T00:23:40.715Z,10.10
2022-10-23T00:24:02.507Z,9.80
2022-10-23T00:24:24.717Z,9.52
2022-10-23T00:24:46.466Z,8.95
2022-10-23T00:25:11.339Z,9.20
2022-10-23T00:25:33.657Z,9.77
2022-10-23T00:25:55.473Z,10.27
2022-10-23T00:26:17.804Z,10.35
2022-10-23T00:26:40.745Z,10.38
2022-10-23T00:27:02.906Z,10.88
2022-10-23T00:27:25.305Z,10.45
2022-10-23T00:27:47.442Z,10.02
2022-10-23T00:28:09.222Z,10.50
2022-10-23T00:28:31.413Z,10.50
2022-10-23T00:28:54.724Z,9.80
2022-10-23T00:29:16.857Z,10.10
2022-10-23T00:29:38.996Z,9.77
2022-10-23T00:30:01.346Z,10.55
2022-10-23T00:30:23.485Z,11.10
2022-10-23T00:30:45.664Z,10.70
2022-10-23T00:31:07.442Z,10.55
2022-10-23T00:31:29.555Z,11.02
2022-10-23T00:31:51.717Z,11.77
2022-10-23T00:32:13.886Z,11.02
2022-10-23T00:32:36.052Z,11.27
2022-10-23T00:32:57.866Z,11.40
2022-10-23T00:33:19.655Z,11.07
2022-10-23T00:33:42.206Z,11.65
2022-10-23T00:34:07.959Z,11.57
2022-10-23T00:34:30.166Z,11.73
2022-10-23T00:34:52.327Z,12.00
2022-10-23T00:35:14.569Z,11.88
2022-10-23T00:35:40.521Z,11.80
2022-10-23T00:36:09.286Z,11.40
2022-10-23T00:36:31.436Z,11.95
2022-10-23T00:36:53.600Z,11.93
2022-10-23T00:37:15.821Z,12.25
2022-10-23T00:37:37.982Z,11.73
2022-10-23T00:37:59.689Z,11.95
2022-10-23T00:38:21.798Z,12.43
2022-10-23T00:38:44.313Z,12.35
2022-10-23T00:39:07.043Z,12.32
2022-10-23T00:39:28.851Z,12.65
2022-10-23T00:39:50.673Z,12.50
2022-10-23T00:40:12.954Z,12.40
2022-10-23T00:40:35.474Z,12.18
2022-10-23T00:40:57.288Z,12.23
2022-10-23T00:41:21.640Z,13.45
2022-10-23T00:41:43.818Z,12.85
2022-10-23T00:42:06.132Z,13.35
2022-10-23T00:42:27.914Z,13.95
2022-10-23T00:42:50.070Z,14.50
2022-10-23T00:43:22.685Z,13.65
2022-10-23T00:44:00.002Z,13.63
2022-10-23T00:44:22.135Z,14.13
2022-10-23T00:44:43.811Z,13.75
2022-10-23T00:45:17.676Z,13.55
2022-10-23T00:45:39.787Z,14.38
2022-10-23T00:46:02.003Z,14.30
2022-10-23T00:46:24.171Z,13.95
2022-10-23T00:46:46.315Z,13.73
2022-10-23T00:47:08.480Z,14.55
2022-10-23T00:47:30.292Z,14.93
2022-10-23T00:47:53.129Z,14.77
2022-10-23T00:48:15.342Z,14.90
2022-10-23T00:48:37.635Z,15.60
2022-10-23T00:49:00.350Z,15.20
2022-10-23T00:49:23.034Z,16.17
2022-10-23T00:49:44.824Z,15.40
2022-10-23T00:50:07.448Z,15.30
2022-10-23T00:50:33.850Z,16.25
2022-10-23T00:50:56.337Z,16.50
2022-10-23T00:51:18.782Z,16.65
2022-10-23T00:51:52.725Z,16.85
2022-10-23T00:52:14.944Z,16.85
2022-10-23T00:52:41.620Z,17.23
2022-10-23T00:53:04.892Z,17.30
2022-10-23T00:53:27.059Z,17.70
2022-10-23T00:54:01.216Z,17.25
2022-10-23T00:54:36.720Z,17.23
2022-10-23T00:54:59.039Z,17.33
2022-10-23T00:55:22.192Z,16.85
2022-10-23T00:55:46.932Z,16.65
2022-10-23T00:56:09.153Z,17.08
2022-10-23T00:56:33.378Z,17.08
2022-10-23T00:56:56.839Z,17.55
2022-10-23T00:57:19.293Z,16.35
2022-10-23T00:57:44.042Z,17.40
2022-10-23T00:58:06.154Z,17.13
2022-10-23T00:58:28.267Z,18.00
2022-10-23T00:58:50.433Z,17.83
2022-10-23T00:59:13.073Z,17.23
2022-10-23T00:59:35.308Z,17.98
2022-10-23T00:59:57.166Z,17.73
2022-10-23T01:00:26.041Z,17.80
2022-10-23T01:00:50.592Z,18.50
2022-10-23T01:01:19.315Z,18.02
2022-10-23T01:01:41.589Z,18.23
2022-10-23T01:02:05.002Z,18.60
2022-10-23T01:02:27.273Z,19.02
2022-10-23T01:02:49.693Z,19.15
2022-10-23T01:03:11.725Z,18.58
2022-10-23T01:03:33.859Z,19.10
2022-10-23T01:03:56.027Z,19.08
2022-10-23T01:04:18.309Z,18.67
2022-10-23T01:04:40.449Z,18.60
2022-10-23T01:05:02.606Z,19.20
2022-10-23T01:05:28.111Z,18.20
2022-10-23T01:05:54.582Z,18.25
2022-10-23T01:06:30.761Z,18.77
2022-10-23T01:07:02.165Z,19.02
2022-10-23T01:07:33.356Z,19.75
2022-10-23T01:07:57.869Z,18.58
2022-10-23T01:08:54.510Z,18.50
2022-10-23T01:09:16.610Z,18.38
2022-10-23T01:09:38.971Z,18.85
2022-10-23T01:10:07.518Z,20.00
2022-10-23T01:10:37.645Z,19.50
2022-10-23T01:11:04.710Z,19.15
2022-10-23T01:11:33.539Z,19.10
2022-10-23T01:11:55.236Z,19.10
2022-10-23T01:12:32.032Z,19.35
2022-10-23T01:13:00.101Z,18.77
2022-10-23T01:13:26.373Z,18.70
2022-10-23T01:13:48.601Z,18.33
2022-10-23T01:14:20.440Z,18.30
2022-10-23T01:14:52.558Z,18.27
2022-10-23T01:15:18.703Z,18.23
2022-10-23T01:15:48.913Z,17.95
2022-10-23T01:16:16.898Z,18.33
2022-10-23T01:16:45.104Z,18.17
2022-10-23T01:17:10.662Z,18.33
2022-10-23T01:17:56.077Z,18.70
2022-10-23T01:18:30.830Z,17.30
2022-10-23T01:19:02.308Z,18.30
2022-10-23T01:19:27.864Z,17.77
2022-10-23T01:19:50.072Z,17.75
2022-10-23T01:20:25.716Z,18.38
2022-10-23T01:20:51.749Z,17.52
2022-10-23T01:21:34.887Z,17.83
2022-10-23T01:21:57.018Z,17.13
2022-10-23T01:22:34.556Z,17.55
2022-10-23T01:23:23.403Z,17.27
2022-10-23T01:24:12.151Z,18.23
2022-10-23T01:24:57.063Z,17.33
2022-10-23T01:25:19.141Z,17.33
2022-10-23T01:25:59.915Z,17.02
2022-10-23T01:26:24.827Z,17.65
2022-10-23T01:27:05.593Z,16.77
2022-10-23T01:27:38.595Z,16.25
2022-10-23T01:28:21.006Z,16.98
2022-10-23T01:28:45.609Z,17.35
2022-10-23T01:29:15.101Z,16.33
2022-10-23T01:29:44.960Z,16.17
2022-10-23T01:30:07.247Z,16.90
2022-10-23T01:30:30.076Z,17.05
2022-10-23T01:30:53.246Z,15.90
2022-10-23T01:31:18.209Z,17.17
2022-10-23T01:31:45.106Z,16.20
2022-10-23T01:32:14.716Z,16.83
2022-10-23T01:32:49.440Z,16.95
2022-10-23T01:33:15.365Z,16.38
2022-10-23T01:33:40.657Z,16.65
2022-10-23T01:34:15.074Z,16.08
2022-10-23T01:35:30.308Z,16.00
2022-10-23T01:36:05.609Z,16.10
2022-10-23T01:36:30.644Z,16.05
2022-10-23T01:36:54.673Z,16.50
2022-10-23T01:37:23.371Z,15.70
2022-10-23T01:37:46.798Z,16.30
2022-10-23T01:38:08.927Z,16.35
2022-10-23T01:38:40.415Z,16.30
2022-10-23T01:39:24.830Z,16.95
2022-10-23T01:39:52.842Z,16.67
2022-10-23T01:40:22.667Z,16.92
2022-10-23T01:40:57.693Z,16.40
2022-10-23T01:41:40.080Z,16.45
2022-10-23T01:42:11.809Z,16.08
2022-10-23T01:42:53.906Z,16.52
2022-10-23T01:43:20.300Z,16.63
2022-10-23T01:44:04.786Z,17.80
2022-10-23T01:44:29.805Z,17.27
2022-10-23T01:44:58.436Z,16.75
2022-10-23T01:45:36.579Z,17.05
2022-10-23T01:46:02.947Z,16.75
2022-10-23T01:46:25.940Z,17.25
2022-10-23T01:46:49.683Z,17.35
2022-10-23T01:47:14.047Z,17.30
2022-10-23T01:47:36.686Z,18.05
2022-10-23T01:48:01.648Z,17.50
2022-10-23T01:48:25.203Z,17.33
2022-10-23T01:48:51.319Z,17.60
2022-10-23T01:49:14.599Z,18.55
2022-10-23T01:49:39.377Z,18.13
2022-10-23T01:50:02.443Z,18.08
2022-10-23T01:50:25.499Z,18.90
2022-10-23T01:50:47.516Z,18.35
2022-10-23T01:51:11.705Z,18.50
2022-10-23T01:51:36.779Z,18.40
2022-10-23T01:52:03.421Z,18.17
2022-10-23T01:52:25.975Z,18.40
2022-10-23T01:52:48.175Z,18.77
2022-10-23T01:53:10.553Z,19.58
2022-10-23T01:53:35.491Z,18.70
2022-10-23T01:54:00.015Z,18.98
2022-10-23T01:54:26.537Z,19.10
2022-10-23T01:54:51.510Z,19.20
2022-10-23T01:55:14.498Z,19.48
2022-10-23T01:55:39.044Z,18.25
2022-10-23T01:56:03.971Z,18.05
2022-10-23T01:56:35.549Z,19.58
2022-10-23T01:56:58.615Z,20.10
2022-10-23T01:57:23.210Z,19.83
2022-10-23T01:57:47.264Z,19.63
2022-10-23T01:58:11.159Z,20.73
2022-10-23T01:58:35.051Z,20.13
2022-10-23T01:58:58.610Z,21.05
2022-10-23T01:59:25.727Z,20.77
2022-10-23T01:59:55.305Z,20.20
2022-10-23T02:00:19.780Z,19.73
2022-10-23T02:00:42.932Z,19.85
2022-10-23T02:01:07.067Z,20.55
2022-10-23T02:01:31.512Z,21.17
2022-10-23T02:01:57.803Z,20.75
2022-10-23T02:02:22.933Z,20.25
2022-10-23T02:02:47.556Z,21.02
2022-10-23T02:03:10.174Z,21.83
2022-10-23T02:03:35.500Z,21.95
2022-10-23T02:04:30.941Z,21.85
2022-10-23T02:05:14.576Z,21.50
2022-10-23T02:05:37.824Z,21.52
2022-10-23T02:06:00.140Z,21.33
2022-10-23T02:06:21.944Z,22.45
2022-10-23T02:06:44.085Z,21.75
2022-10-23T02:07:06.279Z,21.70
2022-10-23T02:07:28.117Z,21.17
2022-10-23T02:07:50.591Z,21.17
2022-10-23T02:08:12.746Z,21.52
2022-10-23T02:08:35.009Z,21.00
2022-10-23T02:08:57.161Z,20.58
2022-10-23T02:09:19.087Z,20.38
2022-10-23T02:09:41.284Z,21.30
2022-10-23T02:10:05.878Z,21.52
2022-10-23T02:10:33.246Z,21.23
2022-10-23T02:11:15.576Z,21.05
2022-10-23T02:11:44.326Z,20.10
2022-10-23T02:13:12.606Z,19.42
2022-10-23T02:13:39.018Z,20.27
2022-10-23T02:14:22.511Z,19.40
2022-10-23T02:14:44.636Z,20.40
2022-10-23T02:15:14.812Z,21.33
2022-10-23T02:15:41.355Z,20.23
2022-10-23T02:16:09.697Z,20.45
2022-10-23T02:16:43.294Z,20.73
2022-10-23T02:17:09.821Z,20.70
2022-10-23T02:17:37.982Z,20.80
2022-10-23T02:18:00.270Z,21.58
2022-10-23T02:18:22.364Z,20.95
2022-10-23T02:19:12.160Z,20.67
2022-10-23T02:19:38.790Z,20.48
2022-10-23T02:20:00.852Z,20.75
2022-10-23T02:20:35.321Z,20.38
2022-10-23T02:21:01.827Z,21.08
2022-10-23T02:21:28.463Z,20.55
2022-10-23T02:21:59.523Z,20.33
2022-10-23T02:22:21.925Z,21.25
2022-10-23T02:22:54.428Z,21.90
2022-10-23T02:23:43.438Z,20.88
2022-10-23T02:24:08.136Z,21.40
2022-10-23T02:24:42.009Z,21.80
2022-10-23T02:25:12.805Z,20.10
2022-10-23T02:25:37.945Z,20.92
2022-10-23T02:26:09.292Z,20.05
2022-10-23T02:26:35.109Z,21.40
2022-10-23T02:27:01.122Z,20.95
2022-10-23T02:27:35.991Z,21.38
2022-10-23T02:28:01.729Z,20.65
2022-10-23T02:28:28.505Z,21.48
2022-10-23T02:28:53.053Z,21.65
2022-10-23T02:29:39.076Z,21.30
2022-10-23T02:30:11.868Z,21.23
2022-10-23T02:30:35.600Z,20.65
2022-10-23T02:30:59.639Z,21.23
2022-10-23T02:31:23.388Z,21.30
2022-10-23T02:31:45.874Z,21.67
2022-10-23T02:32:10.197Z,20.75
2022-10-23T02:32:33.304Z,20.92
2022-10-23T02:32:56.119Z,20.77
2022-10-23T02:33:18.859Z,20.55
2022-10-23T02:33:41.209Z,20.35
2022-10-23T02:34:03.472Z,20.45
2022-10-23T02:34:25.296Z,21.15
2022-10-23T02:34:47.989Z,21.33
2022-10-23T02:35:10.176Z,21.60
2022-10-23T02:35:32.411Z,21.38
2022-10-23T02:35:54.254Z,21.90
2022-10-23T02:36:17.308Z,20.98
2022-10-23T02:36:39.764Z,20.52
2022-10-23T02:37:01.896Z,20.73
2022-10-23T02:37:25.472Z,20.42
2022-10-23T02:37:55.634Z,21.73
2022-10-23T02:38:29.493Z,21.35
2022-10-23T02:38:51.433Z,20.95
2022-10-23T02:39:13.339Z,21.25
2022-10-23T02:39:35.253Z,20.98
2022-10-23T02:39:57.153Z,21.38
2022-10-23T02:40:19.070Z,21.45
2022-10-23T02:40:42.553Z,20.67
2022-10-23T02:41:19.625Z,20.73
2022-10-23T02:41:44.715Z,20.80
2022-10-23T02:42:06.801Z,21.80
2022-10-23T02:42:31.660Z,20.83
2022-10-23T02:43:06.691Z,21.08
2022-10-23T02:43:33.018Z,20.40
2022-10-23T02:44:01.056Z,21.17
2022-10-23T02:44:34.322Z,21.40
2022-10-23T02:45:15.227Z,21.50
2022-10-23T02:46:20.112Z,21.25
2022-10-23T02:46:50.802Z,21.45
2022-10-23T02:47:46.072Z,21.27
2022-10-23T02:48:12.670Z,22.20
2022-10-23T02:48:43.271Z,21.40
2022-10-23T02:49:17.806Z,21.10
2022-10-23T02:49:45.246Z,22.08
2022-10-23T02:50:07.398Z,22.58
2022-10-23T02:50:32.937Z,21.17
2022-10-23T02:51:06.230Z,22.45
2022-10-23T02:51:48.574Z,22.67
2022-10-23T02:52:25.171Z,21.42
2022-10-23T02:53:10.604Z,22.45
2022-10-23T02:54:04.438Z,22.63
2022-10-23T02:54:40.154Z,22.90
2022-10-23T02:55:07.965Z,21.60
2022-10-23T02:55:48.929Z,22.17
2022-10-23T02:56:36.648Z,22.27
2022-10-23T02:57:05.243Z,23.05
2022-10-23T02:57:30.131Z,22.48
2022-10-23T02:57:54.965Z,22.92
2022-10-23T02:58:17.097Z,22.75
2022-10-23T02:58:49.544Z,22.10
2022-10-23T02:59:34.128Z,22.40
2022-10-23T03:00:04.559Z,23.38
2022-10-23T03:00:29.942Z,23.00
2022-10-23T03:00:57.712Z,22.05
2022-10-23T03:01:23.631Z,21.60
2022-10-23T03:01:50.745Z,21.92
2022-10-23T03:02:27.075Z,22.83
2022-10-23T03:02:57.664Z,22.65
2022-10-23T03:03:24.967Z,22.08
2022-10-23T03:03:51.514Z,20.67
2022-10-23T03:04:15.578Z,20.98
2022-10-23T03:04:38.767Z,22.83
2022-10-23T03:05:02.064Z,21.30
2022-10-23T03:05:34.536Z,21.33
2022-10-23T03:05:56.666Z,21.85
2022-10-23T03:06:18.827Z,20.73
2022-10-23T03:06:40.717Z,20.23
2022-10-23T03:07:02.882Z,21.63
2022-10-23T03:07:26.594Z,20.63
2022-10-23T03:07:49.406Z,21.13
2022-10-23T03:08:13.042Z,21.38
2022-10-23T03:08:42.192Z,20.63
2022-10-23T03:09:10.549Z,21.17
2022-10-23T03:09:32.274Z,21.45
2022-10-23T03:09:54.397Z,19.98
2022-10-23T03:10:16.224Z,20.58
2022-10-23T03:10:38.409Z,20.73
2022-10-23T03:11:00.613Z,20.77
2022-10-23T03:11:23.025Z,20.58
2022-10-23T03:11:45.185Z,19.98
2022-10-23T03:12:07.054Z,20.65
2022-10-23T03:12:28.803Z,20.38
2022-10-23T03:12:50.799Z,20.00
2022-10-23T03:13:13.020Z,20.83
2022-10-23T03:13:35.124Z,20.90
2022-10-23T03:13:57.294Z,20.42
2022-10-23T03:14:19.621Z,20.30
2022-10-23T03:14:41.318Z,21.17
2022-10-23T03:15:03.433Z,21.75
2022-10-23T03:15:25.235Z,22.00
2022-10-23T03:15:47.422Z,21.05
2022-10-23T03:16:09.309Z,20.20
2022-10-23T03:16:31.417Z,21.75
2022-10-23T03:16:53.964Z,21.73
2022-10-23T03:17:17.134Z,21.85
2022-10-23T03:17:39.206Z,21.67
2022-10-23T03:18:01.361Z,21.13
2022-10-23T03:18:23.161Z,21.27
2022-10-23T03:18:45.482Z,22.20
2022-10-23T03:19:07.302Z,22.25
2022-10-23T03:19:29.049Z,21.80
2022-10-23T03:19:50.915Z,21.98
2022-10-23T03:20:13.151Z,21.17
2022-10-23T03:20:35.317Z,21.13
2022-10-23T03:20:57.226Z,22.25
2022-10-23T03:21:19.911Z,22.10
2022-10-23T03:21:42.089Z,22.13
2022-10-23T03:22:03.843Z,22.10
2022-10-23T03:22:25.845Z,21.60
2022-10-23T03:22:47.600Z,21.50
2022-10-23T03:23:12.369Z,22.80
2022-10-23T03:23:34.531Z,22.60
2022-10-23T03:23:56.285Z,22.52
2022-10-23T03:24:17.999Z,21.50
2022-10-23T03:24:40.123Z,21.77
2022-10-23T03:25:02.216Z,22.30
2022-10-23T03:25:24.297Z,22.42
2022-10-23T03:25:45.996Z,23.38
2022-10-23T03:26:08.264Z,22.17
2022-10-23T03:26:30.454Z,21.15
2022-10-23T03:26:52.680Z,21.10
2022-10-23T03:27:14.896Z,22.30
2022-10-23T03:27:36.853Z,23.40
2022-10-23T03:27:58.630Z,22.85
2022-10-23T03:28:20.563Z,22.23
2022-10-23T03:28:42.727Z,22.10
2022-10-23T03:29:05.488Z,22.10
2022-10-23T03:29:27.882Z,22.88
2022-10-23T03:29:49.626Z,23.38
2022-10-23T03:30:11.651Z,23.00
2022-10-23T03:30:33.402Z,22.63
2022-10-23T03:30:56.014Z,23.13
2022-10-23T03:31:17.719Z,22.92
2022-10-23T03:31:39.827Z,23.38
2022-10-23T03:32:01.995Z,23.30
2022-10-23T03:32:23.708Z,23.40
2022-10-23T03:32:45.884Z,23.50
2022-10-23T03:33:07.650Z,23.27
2022-10-23T03:33:30.612Z,23.13
2022-10-23T03:33:52.364Z,22.80
2022-10-23T03:34:15.069Z,23.23
2022-10-23T03:34:36.868Z,23.02
2022-10-23T03:34:58.730Z,23.27
2022-10-23T03:35:20.516Z,23.35
2022-10-23T03:35:42.309Z,22.98
2022-10-23T03:36:04.598Z,23.52
2022-10-23T03:36:26.395Z,22.65
2022-10-23T03:36:48.133Z,21.90
2022-10-23T03:37:10.564Z,22.05
2022-10-23T03:37:32.704Z,22.38
2022-10-23T03:37:54.451Z,22.73
2022-10-23T03:38:16.287Z,22.20
2022-10-23T03:38:38.433Z,22.17
2022-10-23T03:39:00.582Z,22.63
2022-10-23T03:39:22.469Z,22.90
2022-10-23T03:39:44.216Z,21.95
2022-10-23T03:40:06.546Z,22.43
2022-10-23T03:40:28.652Z,22.38
2022-10-23T03:40:50.448Z,22.55
2022-10-23T03:41:12.594Z,22.45
2022-10-23T03:41:34.686Z,22.98
2022-10-23T03:41:56.539Z,22.98
2022-10-23T03:42:18.418Z,23.17
2022-10-23T03:42:40.176Z,22.25
2022-10-23T03:43:02.324Z,20.88
2022-10-23T03:43:24.021Z,21.25
2022-10-23T03:43:46.167Z,22.08
2022-10-23T03:44:07.912Z,21.75
2022-10-23T03:44:31.229Z,21.52
2022-10-23T03:44:53.395Z,21.35
2022-10-23T03:45:15.242Z,21.05
2022-10-23T03:45:38.498Z,21.25
2022-10-23T03:46:02.015Z,21.00
2022-10-23T03:46:24.387Z,20.83
2022-10-23T03:46:46.182Z,21.33
2022-10-23T03:47:10.091Z,21.45
2022-10-23T03:47:34.958Z,21.20
2022-10-23T03:47:57.139Z,20.52
2022-10-23T03:48:18.897Z,20.92
2022-10-23T03:48:42.133Z,21.42
2022-10-23T03:49:04.458Z,21.30
2022-10-23T03:49:26.565Z,20.33
2022-10-23T03:49:48.284Z,20.92
2022-10-23T03:50:10.921Z,19.45
2022-10-23T03:50:32.906Z,20.45
2022-10-23T03:50:54.608Z,21.23
2022-10-23T03:51:16.370Z,21.17
2022-10-23T03:51:41.629Z,20.10
2022-10-23T03:52:03.757Z,19.73
2022-10-23T03:52:25.897Z,19.27
2022-10-23T03:52:47.699Z,19.85
2022-10-23T03:53:09.438Z,19.42
2022-10-23T03:53:31.590Z,20.13
2022-10-23T03:53:53.713Z,18.77
2022-10-23T03:54:15.482Z,19.08
2022-10-23T03:54:37.315Z,20.05
2022-10-23T03:54:59.541Z,19.05
2022-10-23T03:55:21.250Z,19.73
2022-10-23T03:55:44.706Z,20.50
2022-10-23T03:56:06.931Z,20.45
2022-10-23T03:56:29.046Z,19.73
2022-10-23T03:56:53.681Z,19.63
2022-10-23T03:57:18.359Z,19.55
2022-10-23T03:57:40.183Z,19.33
2022-10-23T03:58:02.332Z,19.23
2022-10-23T03:58:24.436Z,18.58
2022-10-23T03:58:46.142Z,17.95
2022-10-23T03:59:07.880Z,18.50
2022-10-23T03:59:30.053Z,19.42
2022-10-23T03:59:52.437Z,18.73
2022-10-23T04:00:14.544Z,18.83
2022-10-23T04:00:36.337Z,18.65
2022-10-23T04:00:58.534Z,19.02
2022-10-23T04:01:20.762Z,18.50
2022-10-23T04:01:43.063Z,19.67
2022-10-23T04:02:05.401Z,19.52
2022-10-23T04:02:27.752Z,18.38
2022-10-23T04:02:49.633Z,18.77
2022-10-23T04:03:11.347Z,18.75
2022-10-23T04:03:33.460Z,18.35
2022-10-23T04:03:55.664Z,18.85
2022-10-23T04:04:17.822Z,18.33
2022-10-23T04:04:39.957Z,19.30
2022-10-23T04:05:02.338Z,18.88
2022-10-23T04:05:24.454Z,19.13
2022-10-23T04:05:46.817Z,19.17
2022-10-23T04:06:09.054Z,17.67
2022-10-23T04:06:31.247Z,17.90
2022-10-23T04:06:53.252Z,18.15
2022-10-23T04:07:15.085Z,18.20
2022-10-23T04:07:37.270Z,18.13
2022-10-23T04:07:59.064Z,18.33
2022-10-23T04:08:20.894Z,18.02
2022-10-23T04:08:46.386Z,18.95
2022-10-23T04:09:08.223Z,19.48
2022-10-23T04:09:30.529Z,19.58
2022-10-23T04:09:52.251Z,19.17
2022-10-23T04:10:14.007Z,18.45
2022-10-23T04:10:35.787Z,17.83
2022-10-23T04:10:57.983Z,17.70
2022-10-23T04:11:20.145Z,17.50
2022-10-23T04:11:41.870Z,17.63
2022-10-23T04:12:04.075Z,17.85
2022-10-23T04:12:26.192Z,18.50
2022-10-23T04:12:47.908Z,18.10
2022-10-23T04:13:10.093Z,18.23
2022-10-23T04:13:32.286Z,18.17
2022-10-23T04:13:54.038Z,18.58
2022-10-23T04:14:15.861Z,17.90
2022-10-23T04:14:38.052Z,18.42
2022-10-23T04:15:00.276Z,19.27
2022-10-23T04:15:22.124Z,18.75
2022-10-23T04:15:51.225Z,17.73
2022-10-23T04:16:13.013Z,17.77
2022-10-23T04:16:34.690Z,18.67
2022-10-23T04:16:56.819Z,18.60
2022-10-23T04:17:18.581Z,18.55
2022-10-23T04:17:40.837Z,18.42
2022-10-23T04:18:02.952Z,17.58
2022-10-23T04:18:25.092Z,18.27
2022-10-23T04:18:47.302Z,18.60
2022-10-23T04:19:09.558Z,17.80
2022-10-23T04:19:31.462Z,18.92
2022-10-23T04:19:53.219Z,18.58
2022-10-23T04:20:15.424Z,18.90
2022-10-23T04:20:37.123Z,17.90
2022-10-23T04:20:58.853Z,18.40
2022-10-23T04:21:21.190Z,18.67
2022-10-23T04:21:43.640Z,19.25
2022-10-23T04:22:05.404Z,18.52
2022-10-23T04:22:28.410Z,18.05
2022-10-23T04:22:50.401Z,18.25
2022-10-23T04:23:12.122Z,18.45
2022-10-23T04:23:34.695Z,18.92
2022-10-23T04:23:56.811Z,18.20
2022-10-23T04:24:18.973Z,19.00
2022-10-23T04:24:45.384Z,18.40
2022-10-23T04:25:07.589Z,18.88
2022-10-23T04:25:29.829Z,19.40
2022-10-23T04:25:51.925Z,19.10
2022-10-23T04:26:14.041Z,18.85
2022-10-23T04:26:36.222Z,18.95
2022-10-23T04:26:58.305Z,19.55
2022-10-23T04:27:20.460Z,19.23
2022-10-23T04:27:42.623Z,19.65
2022-10-23T04:28:05.024Z,19.00
2022-10-23T04:28:27.145Z,19.60
2022-10-23T04:28:50.405Z,19.65
2022-10-23T04:29:12.231Z,19.65
2022-10-23T04:29:34.349Z,18.60
2022-10-23T04:29:58.359Z,18.20
2022-10-23T04:30:20.944Z,18.67
2022-10-23T04:30:43.070Z,19.55
2022-10-23T04:31:05.204Z,19.60
2022-10-23T04:31:27.334Z,18.95
2022-10-23T04:31:49.596Z,19.15
2022-10-23T04:32:12.027Z,19.48
2022-10-23T04:32:34.123Z,19.63
2022-10-23T04:32:56.276Z,19.60
2022-10-23T04:33:18.587Z,19.10
2022-10-23T04:33:40.302Z,19.38
2022-10-23T04:34:02.481Z,19.10
2022-10-23T04:34:24.305Z,19.73
2022-10-23T04:34:46.405Z,19.98
2022-10-23T04:35:08.397Z,19.40
2022-10-23T04:35:30.555Z,19.00
2022-10-23T04:35:52.724Z,19.10
2022-10-23T04:36:14.848Z,19.77
2022-10-23T04:36:36.597Z,19.27
2022-10-23T04:36:58.717Z,19.13
2022-10-23T04:37:20.952Z,19.45
2022-10-23T04:37:43.267Z,19.83
2022-10-23T04:38:05.586Z,18.80
2022-10-23T04:38:27.306Z,20.00
2022-10-23T04:38:49.517Z,18.73
2022-10-23T04:39:11.683Z,18.73
2022-10-23T04:39:33.529Z,19.65
2022-10-23T04:39:55.296Z,20.05
2022-10-23T04:40:17.170Z,19.42
2022-10-23T04:40:39.025Z,19.75
2022-10-23T04:41:00.795Z,19.90
2022-10-23T04:41:22.982Z,19.58
2022-10-23T04:41:45.271Z,19.58
2022-10-23T04:42:07.380Z,19.45
2022-10-23T04:42:29.157Z,19.40
2022-10-23T04:42:51.271Z,19.73
2022-10-23T04:43:13.416Z,19.77
2022-10-23T04:43:35.200Z,19.60
2022-10-23T04:43:56.951Z,20.13
2022-10-23T04:44:19.082Z,20.05
2022-10-23T04:44:40.798Z,19.40
2022-10-23T04:45:02.661Z,18.80
2022-10-23T04:45:24.400Z,18.05
2022-10-23T04:45:46.575Z,19.13
2022-10-23T04:46:08.797Z,18.90
2022-10-23T04:46:30.982Z,18.88
2022-10-23T04:46:53.114Z,19.10
2022-10-23T04:47:14.853Z,18.98
2022-10-23T04:47:36.758Z,19.67
2022-10-23T04:47:58.996Z,18.48
2022-10-23T04:48:24.402Z,18.95
2022-10-23T04:48:48.794Z,18.92
2022-10-23T04:49:10.530Z,20.98
2022-10-23T04:49:32.631Z,21.13
2022-10-23T04:49:54.738Z,20.95
2022-10-23T04:50:17.154Z,23.67
2022-10-23T04:50:39.341Z,27.88
2022-10-23T04:51:05.639Z,26.77
2022-10-23T04:51:27.368Z,26.50
2022-10-23T04:51:49.181Z,26.38
2022-10-23T04:52:11.278Z,26.35
2022-10-23T04:52:33.006Z,25.67
2022-10-23T04:52:56.328Z,27.35
2022-10-23T04:53:18.440Z,29.67
2022-10-23T04:53:40.191Z,28.13
2022-10-23T04:54:02.314Z,24.15
2022-10-23T04:54:24.454Z,21.83
2022-10-23T04:54:47.768Z,23.65
2022-10-23T04:55:09.845Z,23.17
2022-10-23T04:55:32.107Z,21.30
2022-10-23T04:55:55.033Z,20.92
2022-10-23T04:56:17.209Z,20.90
2022-10-23T04:56:39.035Z,20.42
2022-10-23T04:57:00.750Z,20.55
2022-10-23T04:57:22.932Z,20.55
2022-10-23T04:57:45.139Z,20.17
2022-10-23T04:58:07.225Z,18.42
2022-10-23T04:58:29.283Z,17.73
2022-10-23T04:58:52.509Z,17.65
2022-10-23T04:59:14.354Z,18.00
2022-10-23T04:59:36.125Z,17.42
2022-10-23T04:59:57.884Z,16.58
2022-10-23T05:00:20.316Z,16.42
2022-10-23T05:00:42.095Z,16.67
2022-10-23T05:01:03.976Z,16.63
2022-10-23T05:01:26.286Z,18.38
2022-10-23T05:01:48.176Z,17.70
2022-10-23T05:02:10.029Z,17.13
2022-10-23T05:02:31.847Z,16.75
2022-10-23T05:02:53.638Z,16.35
2022-10-23T05:03:16.225Z,16.70
2022-10-23T05:03:38.760Z,16.52
2022-10-23T05:04:00.835Z,18.05
2022-10-23T05:04:22.546Z,19.73
2022-10-23T05:04:44.244Z,20.73
2022-10-23T05:05:07.293Z,23.33
2022-10-23T05:05:29.034Z,22.05
2022-10-23T05:05:56.184Z,22.33
2022-10-23T05:06:17.935Z,23.70
2022-10-23T05:06:40.192Z,24.15
2022-10-23T05:07:02.538Z,24.05
2022-10-23T05:07:24.249Z,23.88
2022-10-23T05:07:46.543Z,23.33
2022-10-23T05:08:08.779Z,23.95
2022-10-23T05:08:30.953Z,25.52
2022-10-23T05:08:52.683Z,26.10
2022-10-23T05:09:14.870Z,23.50
2022-10-23T05:09:37.129Z,23.33
2022-10-23T05:09:59.243Z,23.23
2022-10-23T05:10:20.962Z,22.85
2022-10-23T05:10:42.957Z,22.45
2022-10-23T05:11:04.976Z,22.35
2022-10-23T05:11:27.108Z,21.23
2022-10-23T05:11:49.569Z,20.67
2022-10-23T05:12:11.338Z,19.50
2022-10-23T05:12:33.169Z,19.25
2022-10-23T05:12:54.894Z,18.50
2022-10-23T05:13:20.710Z,19.13
2022-10-23T05:13:42.876Z,18.70
2022-10-23T05:14:04.627Z,18.23
2022-10-23T05:14:26.765Z,17.20
2022-10-23T05:14:48.890Z,17.77
2022-10-23T05:15:11.237Z,18.35
2022-10-23T05:15:33.523Z,18.45
2022-10-23T05:15:55.691Z,17.60
2022-10-23T05:16:30.412Z,18.23
2022-10-23T05:17:04.765Z,18.30
2022-10-23T05:17:33.288Z,17.60
2022-10-23T05:18:02.493Z,17.52
2022-10-23T05:18:30.473Z,18.27
2022-10-23T05:18:52.588Z,19.63
2022-10-23T05:19:21.983Z,19.58
2022-10-23T05:19:49.180Z,19.70